Terminal Aerodrome Forecast
Issued by NWS Pittsburgh, PA

Current Version | Previous Version | Text Only | Print | Product List | Glossary Off
Versions: 1 2 3 4 5 6 7 8 9 10 11 12 13 14 15 16 17 18 19 20 21 22 23 24 25

000
FTUS41 KPBZ 132044 AAA
TAFPIT
TAF AMD
KPIT 132044Z 1321/1424 36008KT P6SM OVC250
     FM141400 08004KT P6SM VCSH OVC050
     FM141800 00000KT P6SM -RASNPL OVC025=

USA.gov is the U.S. government's official web portal to all federal, state and local government web resources and services.